sensor_id;sensor_type;location;lat;lon;timestamp;pressure;altitude;pressure_sealevel;temperature;humidity
61697;BME280;47610;52.252;20.922;2023-08-01T00:00:45;99417.88;;;20.94;100.00
61697;BME280;47610;52.252;20.922;2023-08-01T00:05:48;99416.68;;;20.85;100.00
61697;BME280;47610;52.252;20.922;2023-08-01T00:10:51;99418.21;;;20.78;100.00
61697;BME280;47610;52.252;20.922;2023-08-01T00:15:54;99412.56;;;20.71;100.00
61697;BME280;47610;52.252;20.922;2023-08-01T00:20:57;99405.74;;;20.67;100.00
61697;BME280;47610;52.252;20.922;2023-08-01T00:26:01;99404.02;;;20.60;100.00
61697;BME280;47610;52.252;20.922;2023-08-01T00:31:08;99403.24;;;20.51;100.00
61697;BME280;47610;52.252;20.922;2023-08-01T00:36:11;99403.87;;;20.44;100.00
61697;BME280;47610;52.252;20.922;2023-08-01T00:41:14;99398.34;;;20.35;100.00
61697;BME280;47610;52.252;20.922;2023-08-01T00:46:17;99394.27;;;20.28;100.00
61697;BME280;47610;52.252;20.922;2023-08-01T00:51:20;99387.50;;;20.22;100.00
61697;BME280;47610;52.252;20.922;2023-08-01T00:56:23;99381.66;;;20.17;100.00
61697;BME280;47610;52.252;20.922;2023-08-01T01:01:26;99370.23;;;20.13;100.00
61697;BME280;47610;52.252;20.922;2023-08-01T01:06:34;99357.48;;;20.11;100.00
61697;BME280;47610;52.252;20.922;2023-08-01T01:11:40;99350.17;;;20.09;100.00
61697;BME280;47610;52.252;20.922;2023-08-01T01:16:43;99350.80;;;20.05;100.00
61697;BME280;47610;52.252;20.922;2023-08-01T01:21:47;99344.16;;;20.01;100.00
61697;BME280;47610;52.252;20.922;2023-08-01T01:26:52;99341.77;;;19.97;100.00
61697;BME280;47610;52.252;20.922;2023-08-01T01:31:56;99337.44;;;19.96;100.00
61697;BME280;47610;52.252;20.922;2023-08-01T01:37:00;99326.15;;;19.94;100.00
61697;BME280;47610;52.252;20.922;2023-08-01T01:42:03;99319.95;;;19.93;100.00
61697;BME280;47610;52.252;20.922;2023-08-01T01:47:07;99307.81;;;19.92;100.00
61697;BME280;47610;52.252;20.922;2023-08-01T01:52:10;99302.08;;;19.92;100.00
61697;BME280;47610;52.252;20.922;2023-08-01T01:57:13;99298.64;;;19.92;100.00
61697;BME280;47610;52.252;20.922;2023-08-01T02:02:16;99295.77;;;19.92;100.00
61697;BME280;47610;52.252;20.922;2023-08-01T02:07:19;99289.14;;;19.91;100.00
61697;BME280;47610;52.252;20.922;2023-08-01T02:12:22;99285.58;;;19.89;100.00
61697;BME280;47610;52.252;20.922;2023-08-01T02:17:25;99277.55;;;19.84;100.00
61697;BME280;47610;52.252;20.922;2023-08-01T02:22:28;99267.98;;;19.77;100.00
61697;BME280;47610;52.252;20.922;2023-08-01T02:27:31;99265.38;;;19.71;100.00
61697;BME280;47610;52.252;20.922;2023-08-01T02:32:34;99254.05;;;19.67;100.00
61697;BME280;47610;52.252;20.922;2023-08-01T02:37:37;99245.30;;;19.63;100.00
61697;BME280;47610;52.252;20.922;2023-08-01T02:42:40;99238.33;;;19.58;100.00
61697;BME280;47610;52.252;20.922;2023-08-01T02:47:44;99232.95;;;19.49;100.00
61697;BME280;47610;52.252;20.922;2023-08-01T02:52:47;99226.80;;;19.43;100.00
61697;BME280;47610;52.252;20.922;2023-08-01T02:57:50;99220.65;;;19.38;100.00
61697;BME280;47610;52.252;20.922;2023-08-01T03:02:53;99213.11;;;19.32;100.00
61697;BME280;47610;52.252;20.922;2023-08-01T03:07:56;99210.33;;;19.29;100.00
61697;BME280;47610;52.252;20.922;2023-08-01T03:12:59;99207.48;;;19.24;100.00
61697;BME280;47610;52.252;20.922;2023-08-01T03:18:02;99199.24;;;19.19;100.00
61697;BME280;47610;52.252;20.922;2023-08-01T03:23:05;99196.30;;;19.16;100.00
61697;BME280;47610;52.252;20.922;2023-08-01T03:28:08;99190.09;;;19.13;100.00
61697;BME280;47610;52.252;20.922;2023-08-01T03:33:11;99189.80;;;19.14;100.00
61697;BME280;47610;52.252;20.922;2023-08-01T03:38:15;99188.27;;;19.13;100.00
61697;BME280;47610;52.252;20.922;2023-08-01T03:43:18;99183.41;;;19.10;100.00
61697;BME280;47610;52.252;20.922;2023-08-01T03:48:21;99174.98;;;19.11;100.00
61697;BME280;47610;52.252;20.922;2023-08-01T03:53:24;99179.11;;;19.14;100.00
61697;BME280;47610;52.252;20.922;2023-08-01T03:58:27;99170.91;;;19.15;100.00
61697;BME280;47610;52.252;20.922;2023-08-01T04:03:30;99160.10;;;19.16;100.00
61697;BME280;47610;52.252;20.922;2023-08-01T04:08:33;99161.33;;;19.17;100.00
61697;BME280;47610;52.252;20.922;2023-08-01T04:13:36;99161.87;;;19.20;100.00
61697;BME280;47610;52.252;20.922;2023-08-01T04:18:39;99166.27;;;19.21;100.00
61697;BME280;47610;52.252;20.922;2023-08-01T04:23:42;99160.23;;;19.21;100.00
61697;BME280;47610;52.252;20.922;2023-08-01T04:28:46;99156.41;;;19.21;100.00
61697;BME280;47610;52.252;20.922;2023-08-01T04:33:49;99155.06;;;19.22;100.00
61697;BME280;47610;52.252;20.922;2023-08-01T04:38:52;99150.12;;;19.25;100.00
61697;BME280;47610;52.252;20.922;2023-08-01T04:43:56;99147.70;;;19.31;100.00
61697;BME280;47610;52.252;20.922;2023-08-01T04:48:59;99144.73;;;19.48;100.00
61697;BME280;47610;52.252;20.922;2023-08-01T04:54:02;99140.28;;;20.15;100.00
61697;BME280;47610;52.252;20.922;2023-08-01T04:59:05;99139.95;;;21.99;100.00
61697;BME280;47610;52.252;20.922;2023-08-01T05:04:08;99141.55;;;22.67;100.00
61697;BME280;47610;52.252;20.922;2023-08-01T05:09:11;99133.48;;;22.34;100.00
61697;BME280;47610;52.252;20.922;2023-08-01T05:14:14;99130.31;;;22.32;100.00
61697;BME280;47610;52.252;20.922;2023-08-01T05:19:17;99124.47;;;22.57;100.00
61697;BME280;47610;52.252;20.922;2023-08-01T05:24:20;99123.89;;;22.31;100.00
61697;BME280;47610;52.252;20.922;2023-08-01T05:29:23;99116.30;;;21.88;100.00
61697;BME280;47610;52.252;20.922;2023-08-01T05:34:26;99112.83;;;21.54;100.00
61697;BME280;47610;52.252;20.922;2023-08-01T05:39:29;99106.98;;;21.25;100.00
61697;BME280;47610;52.252;20.922;2023-08-01T05:44:32;99109.62;;;21.03;100.00
61697;BME280;47610;52.252;20.922;2023-08-01T05:49:35;99106.16;;;20.91;100.00
61697;BME280;47610;52.252;20.922;2023-08-01T05:54:38;99102.64;;;20.90;100.00
61697;BME280;47610;52.252;20.922;2023-08-01T05:59:41;99100.76;;;20.93;100.00
61697;BME280;47610;52.252;20.922;2023-08-01T06:04:44;99101.27;;;21.00;100.00
61697;BME280;47610;52.252;20.922;2023-08-01T06:09:48;99096.79;;;21.05;100.00
61697;BME280;47610;52.252;20.922;2023-08-01T06:14:51;99095.27;;;21.11;100.00
61697;BME280;47610;52.252;20.922;2023-08-01T06:19:54;99086.08;;;21.23;100.00
61697;BME280;47610;52.252;20.922;2023-08-01T06:24:57;99082.35;;;21.36;100.00
61697;BME280;47610;52.252;20.922;2023-08-01T06:30:00;99081.02;;;21.49;100.00
61697;BME280;47610;52.252;20.922;2023-08-01T06:35:03;99074.16;;;21.58;100.00
61697;BME280;47610;52.252;20.922;2023-08-01T06:40:09;99071.98;;;21.69;100.00
61697;BME280;47610;52.252;20.922;2023-08-01T06:45:13;99066.65;;;21.80;100.00
61697;BME280;47610;52.252;20.922;2023-08-01T06:50:16;99057.73;;;21.83;100.00
61697;BME280;47610;52.252;20.922;2023-08-01T06:55:19;99056.52;;;21.90;100.00
61697;BME280;47610;52.252;20.922;2023-08-01T07:00:22;99053.31;;;21.98;100.00
61697;BME280;47610;52.252;20.922;2023-08-01T07:05:26;99046.90;;;22.12;100.00
61697;BME280;47610;52.252;20.922;2023-08-01T07:10:29;99043.02;;;22.41;100.00
61697;BME280;47610;52.252;20.922;2023-08-01T07:15:32;99044.89;;;22.56;100.00
61697;BME280;47610;52.252;20.922;2023-08-01T07:20:35;99043.25;;;22.62;100.00
61697;BME280;47610;52.252;20.922;2023-08-01T07:25:38;99034.76;;;22.72;100.00
61697;BME280;47610;52.252;20.922;2023-08-01T07:30:41;99032.27;;;22.86;100.00
61697;BME280;47610;52.252;20.922;2023-08-01T07:35:44;99029.98;;;23.02;100.00
61697;BME280;47610;52.252;20.922;2023-08-01T07:40:47;99024.81;;;23.22;100.00
61697;BME280;47610;52.252;20.922;2023-08-01T07:45:50;99022.36;;;23.30;100.00
61697;BME280;47610;52.252;20.922;2023-08-01T07:50:57;99015.36;;;23.27;100.00
61697;BME280;47610;52.252;20.922;2023-08-01T07:56:00;99012.88;;;23.24;100.00
61697;BME280;47610;52.252;20.922;2023-08-01T08:01:05;99007.02;;;23.25;100.00
61697;BME280;47610;52.252;20.922;2023-08-01T08:06:08;99005.15;;;23.41;100.00
61697;BME280;47610;52.252;20.922;2023-08-01T08:11:11;98998.65;;;23.64;100.00
61697;BME280;47610;52.252;20.922;2023-08-01T08:16:14;98992.37;;;23.86;100.00
61697;BME280;47610;52.252;20.922;2023-08-01T08:21:17;98995.68;;;24.01;100.00
61697;BME280;47610;52.252;20.922;2023-08-01T08:26:21;98988.71;;;24.08;99.91
61697;BME280;47610;52.252;20.922;2023-08-01T08:31:24;98989.67;;;24.09;100.00
61697;BME280;47610;52.252;20.922;2023-08-01T08:36:27;98982.27;;;24.06;99.81
61697;BME280;47610;52.252;20.922;2023-08-01T08:41:32;98985.73;;;24.02;100.00
61697;BME280;47610;52.252;20.922;2023-08-01T08:46:42;98980.58;;;23.98;100.00
61697;BME280;47610;52.252;20.922;2023-08-01T08:51:46;98985.41;;;23.96;100.00
61697;BME280;47610;52.252;20.922;2023-08-01T08:56:50;98976.16;;;23.87;99.99
61697;BME280;47610;52.252;20.922;2023-08-01T09:01:53;98979.29;;;23.82;100.00
61697;BME280;47610;52.252;20.922;2023-08-01T09:06:58;98972.36;;;23.75;99.94
61697;BME280;47610;52.252;20.922;2023-08-01T09:12:05;98964.05;;;23.68;100.00
61697;BME280;47610;52.252;20.922;2023-08-01T09:17:09;98955.48;;;23.66;100.00
61697;BME280;47610;52.252;20.922;2023-08-01T09:22:11;98945.69;;;23.69;100.00
61697;BME280;47610;52.252;20.922;2023-08-01T09:27:14;98941.19;;;23.67;100.00
61697;BME280;47610;52.252;20.922;2023-08-01T09:32:18;98938.65;;;23.75;100.00
61697;BME280;47610;52.252;20.922;2023-08-01T09:37:21;98939.47;;;23.84;100.00
61697;BME280;47610;52.252;20.922;2023-08-01T09:42:24;98941.88;;;23.85;99.72
61697;BME280;47610;52.252;20.922;2023-08-01T09:47:37;98940.04;;;23.89;100.00
61697;BME280;47610;52.252;20.922;2023-08-01T09:52:40;98939.39;;;23.97;100.00
61697;BME280;47610;52.252;20.922;2023-08-01T09:57:44;98937.30;;;24.07;100.00
61697;BME280;47610;52.252;20.922;2023-08-01T10:02:51;98931.45;;;24.11;100.00
61697;BME280;47610;52.252;20.922;2023-08-01T10:07:55;98928.55;;;24.13;100.00
61697;BME280;47610;52.252;20.922;2023-08-01T10:13:02;98938.89;;;24.08;100.00
61697;BME280;47610;52.252;20.922;2023-08-01T10:18:05;98948.15;;;24.01;100.00
61697;BME280;47610;52.252;20.922;2023-08-01T10:23:09;98951.60;;;23.95;100.00
61697;BME280;47610;52.252;20.922;2023-08-01T10:28:12;98945.48;;;23.84;100.00
61697;BME280;47610;52.252;20.922;2023-08-01T10:33:16;98950.35;;;23.71;100.00
61697;BME280;47610;52.252;20.922;2023-08-01T10:38:20;98947.42;;;23.53;100.00
61697;BME280;47610;52.252;20.922;2023-08-01T10:43:24;98943.77;;;23.39;100.00
61697;BME280;47610;52.252;20.922;2023-08-01T10:48:28;98944.96;;;23.31;100.00
61697;BME280;47610;52.252;20.922;2023-08-01T10:53:40;98939.54;;;23.17;100.00
61697;BME280;47610;52.252;20.922;2023-08-01T10:58:43;98935.41;;;23.06;100.00
61697;BME280;47610;52.252;20.922;2023-08-01T11:03:47;98930.39;;;22.99;100.00
61697;BME280;47610;52.252;20.922;2023-08-01T11:08:50;98933.08;;;22.93;100.00
61697;BME280;47610;52.252;20.922;2023-08-01T11:13:53;98934.48;;;22.85;100.00
61697;BME280;47610;52.252;20.922;2023-08-01T11:18:56;98928.67;;;22.78;100.00
61697;BME280;47610;52.252;20.922;2023-08-01T11:23:59;98925.57;;;22.82;100.00
61697;BME280;47610;52.252;20.922;2023-08-01T11:29:08;98921.67;;;22.88;100.00
61697;BME280;47610;52.252;20.922;2023-08-01T11:34:11;98924.02;;;22.92;100.00
61697;BME280;47610;52.252;20.922;2023-08-01T11:39:16;98922.10;;;22.94;100.00
61697;BME280;47610;52.252;20.922;2023-08-01T11:44:24;98924.25;;;22.92;100.00
61697;BME280;47610;52.252;20.922;2023-08-01T11:49:27;98919.27;;;22.88;100.00
61697;BME280;47610;52.252;20.922;2023-08-01T11:54:30;98910.11;;;22.85;100.00
61697;BME280;47610;52.252;20.922;2023-08-01T11:59:33;98895.81;;;22.95;100.00
61697;BME280;47610;52.252;20.922;2023-08-01T12:04:37;98888.89;;;23.41;100.00
61697;BME280;47610;52.252;20.922;2023-08-01T12:09:41;98874.20;;;23.82;100.00
61697;BME280;47610;52.252;20.922;2023-08-01T12:14:45;98862.61;;;24.05;100.00
61697;BME280;47610;52.252;20.922;2023-08-01T12:19:48;98857.52;;;24.25;100.00
61697;BME280;47610;52.252;20.922;2023-08-01T12:24:51;98852.50;;;24.47;100.00
61697;BME280;47610;52.252;20.922;2023-08-01T12:29:54;98848.98;;;24.69;100.00
61697;BME280;47610;52.252;20.922;2023-08-01T12:34:57;98852.92;;;24.69;100.00
61697;BME280;47610;52.252;20.922;2023-08-01T12:40:00;98847.10;;;24.52;100.00
61697;BME280;47610;52.252;20.922;2023-08-01T12:45:05;98837.23;;;24.43;100.00
61697;BME280;47610;52.252;20.922;2023-08-01T12:50:09;98827.77;;;24.31;100.00
61697;BME280;47610;52.252;20.922;2023-08-01T12:55:12;98831.74;;;24.23;100.00
61697;BME280;47610;52.252;20.922;2023-08-01T13:00:17;98826.61;;;24.21;100.00
61697;BME280;47610;52.252;20.922;2023-08-01T13:05:20;98825.82;;;24.18;100.00
61697;BME280;47610;52.252;20.922;2023-08-01T13:10:23;98818.38;;;24.03;100.00
61697;BME280;47610;52.252;20.922;2023-08-01T13:15:26;98816.55;;;23.91;100.00
61697;BME280;47610;52.252;20.922;2023-08-01T13:20:29;98811.24;;;23.90;100.00
61697;BME280;47610;52.252;20.922;2023-08-01T13:25:32;98815.83;;;23.91;100.00
61697;BME280;47610;52.252;20.922;2023-08-01T13:30:35;98814.06;;;23.91;100.00
61697;BME280;47610;52.252;20.922;2023-08-01T13:35:38;98807.16;;;23.83;100.00
61697;BME280;47610;52.252;20.922;2023-08-01T13:40:42;98805.90;;;23.77;100.00
61697;BME280;47610;52.252;20.922;2023-08-01T13:45:45;98795.61;;;23.74;100.00
61697;BME280;47610;52.252;20.922;2023-08-01T13:50:48;98783.59;;;23.74;100.00
61697;BME280;47610;52.252;20.922;2023-08-01T13:55:51;98777.48;;;23.77;100.00
61697;BME280;47610;52.252;20.922;2023-08-01T14:00:54;98774.64;;;23.71;100.00
61697;BME280;47610;52.252;20.922;2023-08-01T14:06:02;98766.71;;;23.59;100.00
61697;BME280;47610;52.252;20.922;2023-08-01T14:11:07;98760.63;;;23.43;100.00
61697;BME280;47610;52.252;20.922;2023-08-01T14:16:10;98755.09;;;23.32;100.00
61697;BME280;47610;52.252;20.922;2023-08-01T14:21:13;98764.48;;;23.27;100.00
61697;BME280;47610;52.252;20.922;2023-08-01T14:26:16;98766.72;;;23.34;100.00
61697;BME280;47610;52.252;20.922;2023-08-01T14:31:19;98766.55;;;23.46;100.00
61697;BME280;47610;52.252;20.922;2023-08-01T14:36:22;98760.70;;;23.56;100.00
61697;BME280;47610;52.252;20.922;2023-08-01T14:41:25;98762.29;;;23.68;100.00
61697;BME280;47610;52.252;20.922;2023-08-01T14:46:28;98755.88;;;23.79;100.00
61697;BME280;47610;52.252;20.922;2023-08-01T14:51:33;98750.58;;;23.82;100.00
61697;BME280;47610;52.252;20.922;2023-08-01T14:56:37;98739.98;;;23.72;100.00
61697;BME280;47610;52.252;20.922;2023-08-01T15:01:40;98731.73;;;23.55;100.00
61697;BME280;47610;52.252;20.922;2023-08-01T15:06:43;98728.85;;;23.39;100.00
61697;BME280;47610;52.252;20.922;2023-08-01T15:11:46;98733.75;;;23.18;100.00
61697;BME280;47610;52.252;20.922;2023-08-01T15:16:49;98737.86;;;22.83;100.00
61697;BME280;47610;52.252;20.922;2023-08-01T15:21:53;98733.52;;;22.45;100.00
61697;BME280;47610;52.252;20.922;2023-08-01T15:26:56;98734.41;;;22.13;100.00
61697;BME280;47610;52.252;20.922;2023-08-01T15:31:59;98734.25;;;21.97;100.00
61697;BME280;47610;52.252;20.922;2023-08-01T15:37:02;98725.79;;;21.85;100.00
61697;BME280;47610;52.252;20.922;2023-08-01T15:42:06;98724.32;;;21.80;100.00
61697;BME280;47610;52.252;20.922;2023-08-01T15:47:09;98726.72;;;21.80;100.00
61697;BME280;47610;52.252;20.922;2023-08-01T15:52:12;98736.55;;;21.79;100.00
61697;BME280;47610;52.252;20.922;2023-08-01T15:57:15;98733.23;;;21.73;100.00
61697;BME280;47610;52.252;20.922;2023-08-01T16:02:18;98738.42;;;21.69;100.00
61697;BME280;47610;52.252;20.922;2023-08-01T16:07:21;98736.14;;;21.63;100.00
61697;BME280;47610;52.252;20.922;2023-08-01T16:12:24;98732.34;;;21.58;100.00
61697;BME280;47610;52.252;20.922;2023-08-01T16:17:27;98721.80;;;21.49;100.00
61697;BME280;47610;52.252;20.922;2023-08-01T16:22:30;98719.79;;;21.46;100.00
61697;BME280;47610;52.252;20.922;2023-08-01T16:27:34;98727.80;;;21.50;100.00
61697;BME280;47610;52.252;20.922;2023-08-01T16:32:37;98726.15;;;21.54;100.00
61697;BME280;47610;52.252;20.922;2023-08-01T16:37:40;98730.43;;;21.59;100.00
61697;BME280;47610;52.252;20.922;2023-08-01T16:42:43;98732.44;;;21.60;100.00
61697;BME280;47610;52.252;20.922;2023-08-01T16:47:47;98732.75;;;21.59;100.00
61697;BME280;47610;52.252;20.922;2023-08-01T16:52:50;98734.58;;;21.56;100.00
61697;BME280;47610;52.252;20.922;2023-08-01T16:57:53;98730.81;;;21.56;100.00
61697;BME280;47610;52.252;20.922;2023-08-01T17:02:56;98732.31;;;21.53;100.00
61697;BME280;47610;52.252;20.922;2023-08-01T17:07:59;98741.55;;;21.48;100.00
61697;BME280;47610;52.252;20.922;2023-08-01T17:13:02;98739.20;;;21.44;100.00
61697;BME280;47610;52.252;20.922;2023-08-01T17:18:05;98742.77;;;21.39;100.00
61697;BME280;47610;52.252;20.922;2023-08-01T17:23:08;98756.64;;;21.37;100.00
61697;BME280;47610;52.252;20.922;2023-08-01T17:28:11;98759.09;;;21.36;100.00
61697;BME280;47610;52.252;20.922;2023-08-01T17:33:14;98761.66;;;21.35;100.00
61697;BME280;47610;52.252;20.922;2023-08-01T17:38:17;98757.16;;;21.33;100.00
61697;BME280;47610;52.252;20.922;2023-08-01T17:43:21;98762.81;;;21.30;100.00
61697;BME280;47610;52.252;20.922;2023-08-01T17:48:24;98765.56;;;21.25;100.00
61697;BME280;47610;52.252;20.922;2023-08-01T17:53:27;98771.83;;;21.18;100.00
61697;BME280;47610;52.252;20.922;2023-08-01T17:58:30;98772.48;;;21.10;100.00
61697;BME280;47610;52.252;20.922;2023-08-01T18:03:33;98770.55;;;21.01;100.00
61697;BME280;47610;52.252;20.922;2023-08-01T18:08:37;98774.70;;;20.94;100.00
61697;BME280;47610;52.252;20.922;2023-08-01T18:13:40;98785.75;;;20.88;100.00
61697;BME280;47610;52.252;20.922;2023-08-01T18:18:43;98788.27;;;20.83;100.00
61697;BME280;47610;52.252;20.922;2023-08-01T18:23:47;98789.95;;;20.76;100.00
61697;BME280;47610;52.252;20.922;2023-08-01T18:28:51;98791.73;;;20.71;100.00
61697;BME280;47610;52.252;20.922;2023-08-01T18:33:54;98792.31;;;20.67;100.00
61697;BME280;47610;52.252;20.922;2023-08-01T18:38:57;98789.23;;;20.62;100.00
61697;BME280;47610;52.252;20.922;2023-08-01T18:44:01;98796.71;;;20.61;100.00
61697;BME280;47610;52.252;20.922;2023-08-01T18:49:04;98803.88;;;20.57;100.00
61697;BME280;47610;52.252;20.922;2023-08-01T18:54:07;98801.73;;;20.54;100.00
61697;BME280;47610;52.252;20.922;2023-08-01T18:59:10;98801.68;;;20.50;100.00
61697;BME280;47610;52.252;20.922;2023-08-01T19:04:13;98806.13;;;20.48;100.00
61697;BME280;47610;52.252;20.922;2023-08-01T19:09:16;98810.29;;;20.48;100.00
61697;BME280;47610;52.252;20.922;2023-08-01T19:14:19;98811.36;;;20.45;100.00
61697;BME280;47610;52.252;20.922;2023-08-01T19:19:22;98812.30;;;20.45;100.00
61697;BME280;47610;52.252;20.922;2023-08-01T19:24:25;98810.38;;;20.44;100.00
61697;BME280;47610;52.252;20.922;2023-08-01T19:29:28;98809.27;;;20.44;100.00
61697;BME280;47610;52.252;20.922;2023-08-01T19:34:31;98817.48;;;20.42;100.00
61697;BME280;47610;52.252;20.922;2023-08-01T19:39:34;98827.80;;;20.39;100.00
61697;BME280;47610;52.252;20.922;2023-08-01T19:44:37;98832.38;;;20.35;100.00
61697;BME280;47610;52.252;20.922;2023-08-01T19:49:41;98835.63;;;20.32;100.00
61697;BME280;47610;52.252;20.922;2023-08-01T19:54:44;98838.14;;;20.30;100.00
61697;BME280;47610;52.252;20.922;2023-08-01T19:59:47;98848.02;;;20.27;100.00
61697;BME280;47610;52.252;20.922;2023-08-01T20:04:50;98848.84;;;20.25;100.00
61697;BME280;47610;52.252;20.922;2023-08-01T20:09:53;98858.88;;;20.28;100.00
61697;BME280;47610;52.252;20.922;2023-08-01T20:14:57;98866.12;;;20.33;100.00
61697;BME280;47610;52.252;20.922;2023-08-01T20:20:00;98885.27;;;20.37;100.00
61697;BME280;47610;52.252;20.922;2023-08-01T20:25:04;98891.17;;;20.36;100.00
61697;BME280;47610;52.252;20.922;2023-08-01T20:30:07;98893.12;;;20.38;100.00
61697;BME280;47610;52.252;20.922;2023-08-01T20:35:10;98885.91;;;20.37;100.00
61697;BME280;47610;52.252;20.922;2023-08-01T20:40:13;98884.29;;;20.35;100.00
61697;BME280;47610;52.252;20.922;2023-08-01T20:45:17;98893.54;;;20.29;100.00
61697;BME280;47610;52.252;20.922;2023-08-01T20:50:20;98897.27;;;20.22;100.00
61697;BME280;47610;52.252;20.922;2023-08-01T20:55:23;98895.15;;;20.13;100.00
61697;BME280;47610;52.252;20.922;2023-08-01T21:00:27;98900.34;;;20.08;100.00
61697;BME280;47610;52.252;20.922;2023-08-01T21:05:30;98899.19;;;20.06;100.00
61697;BME280;47610;52.252;20.922;2023-08-01T21:10:33;98910.29;;;20.06;100.00
61697;BME280;47610;52.252;20.922;2023-08-01T21:15:36;98912.79;;;20.08;100.00
61697;BME280;47610;52.252;20.922;2023-08-01T21:20:39;98905.85;;;20.09;100.00
61697;BME280;47610;52.252;20.922;2023-08-01T21:25:42;98897.89;;;20.05;100.00
61697;BME280;47610;52.252;20.922;2023-08-01T21:30:46;98903.77;;;19.98;100.00
61697;BME280;47610;52.252;20.922;2023-08-01T21:35:49;98908.95;;;19.92;100.00
61697;BME280;47610;52.252;20.922;2023-08-01T21:40:52;98911.64;;;19.87;100.00
61697;BME280;47610;52.252;20.922;2023-08-01T21:45:56;98911.44;;;19.84;100.00
61697;BME280;47610;52.252;20.922;2023-08-01T21:51:00;98914.02;;;19.81;100.00
61697;BME280;47610;52.252;20.922;2023-08-01T21:56:03;98916.02;;;19.77;100.00
61697;BME280;47610;52.252;20.922;2023-08-01T22:01:06;98914.00;;;19.74;100.00
61697;BME280;47610;52.252;20.922;2023-08-01T22:06:09;98898.30;;;19.70;100.00
61697;BME280;47610;52.252;20.922;2023-08-01T22:11:12;98899.48;;;19.63;100.00
61697;BME280;47610;52.252;20.922;2023-08-01T22:16:15;98908.33;;;19.58;100.00
61697;BME280;47610;52.252;20.922;2023-08-01T22:21:19;98916.70;;;19.53;100.00
61697;BME280;47610;52.252;20.922;2023-08-01T22:26:22;98925.27;;;19.46;100.00
61697;BME280;47610;52.252;20.922;2023-08-01T22:31:25;98922.98;;;19.39;100.00
61697;BME280;47610;52.252;20.922;2023-08-01T22:36:28;98925.98;;;19.28;100.00
61697;BME280;47610;52.252;20.922;2023-08-01T22:41:31;98931.42;;;19.21;100.00
61697;BME280;47610;52.252;20.922;2023-08-01T22:46:34;98930.11;;;19.16;100.00
61697;BME280;47610;52.252;20.922;2023-08-01T22:51:37;98934.39;;;19.15;100.00
61697;BME280;47610;52.252;20.922;2023-08-01T22:56:40;98935.73;;;19.14;100.00
61697;BME280;47610;52.252;20.922;2023-08-01T23:01:43;98941.84;;;19.12;100.00
61697;BME280;47610;52.252;20.922;2023-08-01T23:06:46;98943.58;;;19.08;100.00
61697;BME280;47610;52.252;20.922;2023-08-01T23:11:49;98945.94;;;19.06;100.00
61697;BME280;47610;52.252;20.922;2023-08-01T23:16:54;98945.48;;;19.04;100.00
61697;BME280;47610;52.252;20.922;2023-08-01T23:21:55;98940.95;;;19.04;100.00
61697;BME280;47610;52.252;20.922;2023-08-01T23:26:58;98946.15;;;19.01;100.00
61697;BME280;47610;52.252;20.922;2023-08-01T23:32:01;98948.20;;;19.00;100.00
61697;BME280;47610;52.252;20.922;2023-08-01T23:37:05;98947.96;;;19.00;100.00
61697;BME280;47610;52.252;20.922;2023-08-01T23:42:08;98948.73;;;18.98;100.00
61697;BME280;47610;52.252;20.922;2023-08-01T23:47:11;98954.38;;;18.95;100.00
61697;BME280;47610;52.252;20.922;2023-08-01T23:52:14;98957.48;;;18.94;100.00
61697;BME280;47610;52.252;20.922;2023-08-01T23:57:17;98957.70;;;18.93;100.00
